sensor_id;sensor_type;location;lat;lon;timestamp;P1;durP1;ratioP1;P2;durP2;ratioP2
65691;SDS011;52411;52.716;6.696;2023-03-20T00:01:15;18.45;;;9.32;;
65691;SDS011;52411;52.716;6.696;2023-03-20T00:03:50;22.55;;;9.50;;
65691;SDS011;52411;52.716;6.696;2023-03-20T00:06:17;24.70;;;11.30;;
65691;SDS011;52411;52.716;6.696;2023-03-20T00:08:45;25.17;;;11.82;;
65691;SDS011;52411;52.716;6.696;2023-03-20T00:14:03;26.30;;;11.18;;
65691;SDS011;52411;52.716;6.696;2023-03-20T00:16:41;21.42;;;11.02;;
65691;SDS011;52411;52.716;6.696;2023-03-20T00:19:17;26.60;;;12.18;;
65691;SDS011;52411;52.716;6.696;2023-03-20T00:21:48;24.08;;;12.13;;
65691;SDS011;52411;52.716;6.696;2023-03-20T00:24:15;22.85;;;10.55;;
65691;SDS011;52411;52.716;6.696;2023-03-20T00:26:41;24.60;;;11.90;;
65691;SDS011;52411;52.716;6.696;2023-03-20T00:29:09;28.52;;;13.15;;
65691;SDS011;52411;52.716;6.696;2023-03-20T00:31:46;29.50;;;12.43;;
65691;SDS011;52411;52.716;6.696;2023-03-20T00:34:12;30.63;;;14.13;;
65691;SDS011;52411;52.716;6.696;2023-03-20T00:36:39;33.25;;;15.18;;
65691;SDS011;52411;52.716;6.696;2023-03-20T00:39:05;33.00;;;13.85;;
65691;SDS011;52411;52.716;6.696;2023-03-20T00:41:32;32.95;;;13.30;;
65691;SDS011;52411;52.716;6.696;2023-03-20T00:46:53;29.55;;;11.95;;
65691;SDS011;52411;52.716;6.696;2023-03-20T00:49:25;30.40;;;12.38;;
65691;SDS011;52411;52.716;6.696;2023-03-20T00:51:52;26.90;;;12.35;;
65691;SDS011;52411;52.716;6.696;2023-03-20T00:54:18;28.95;;;11.65;;
65691;SDS011;52411;52.716;6.696;2023-03-20T00:56:46;28.92;;;12.15;;
65691;SDS011;52411;52.716;6.696;2023-03-20T00:59:19;30.02;;;12.07;;
65691;SDS011;52411;52.716;6.696;2023-03-20T01:01:47;29.63;;;11.98;;
65691;SDS011;52411;52.716;6.696;2023-03-20T01:04:14;25.40;;;11.35;;
65691;SDS011;52411;52.716;6.696;2023-03-20T01:06:42;26.40;;;10.68;;
65691;SDS011;52411;52.716;6.696;2023-03-20T01:09:08;20.27;;;9.25;;
65691;SDS011;52411;52.716;6.696;2023-03-20T01:11:34;21.85;;;8.88;;
65691;SDS011;52411;52.716;6.696;2023-03-20T01:14:01;18.40;;;8.00;;
65691;SDS011;52411;52.716;6.696;2023-03-20T01:16:27;20.85;;;8.75;;
65691;SDS011;52411;52.716;6.696;2023-03-20T01:18:53;15.95;;;7.47;;
65691;SDS011;52411;52.716;6.696;2023-03-20T01:21:19;19.90;;;8.85;;
65691;SDS011;52411;52.716;6.696;2023-03-20T01:23:45;19.17;;;8.13;;
65691;SDS011;52411;52.716;6.696;2023-03-20T01:26:19;23.25;;;8.27;;
65691;SDS011;52411;52.716;6.696;2023-03-20T01:28:48;17.05;;;7.85;;
65691;SDS011;52411;52.716;6.696;2023-03-20T01:31:15;15.10;;;7.60;;
65691;SDS011;52411;52.716;6.696;2023-03-20T01:33:41;19.33;;;8.48;;
65691;SDS011;52411;52.716;6.696;2023-03-20T01:36:08;17.20;;;7.75;;
65691;SDS011;52411;52.716;6.696;2023-03-20T01:38:35;14.15;;;7.20;;
65691;SDS011;52411;52.716;6.696;2023-03-20T01:41:03;15.43;;;7.13;;
65691;SDS011;52411;52.716;6.696;2023-03-20T01:43:34;15.10;;;7.20;;
65691;SDS011;52411;52.716;6.696;2023-03-20T01:46:00;18.13;;;6.80;;
65691;SDS011;52411;52.716;6.696;2023-03-20T01:53:43;14.48;;;7.00;;
65691;SDS011;52411;52.716;6.696;2023-03-20T01:56:12;12.70;;;7.03;;
65691;SDS011;52411;52.716;6.696;2023-03-20T01:58:41;15.98;;;7.10;;
65691;SDS011;52411;52.716;6.696;2023-03-20T02:01:10;18.58;;;6.88;;
65691;SDS011;52411;52.716;6.696;2023-03-20T02:03:38;16.00;;;6.60;;
65691;SDS011;52411;52.716;6.696;2023-03-20T02:06:08;20.23;;;7.73;;
65691;SDS011;52411;52.716;6.696;2023-03-20T02:08:40;14.98;;;7.20;;
65691;SDS011;52411;52.716;6.696;2023-03-20T02:11:09;18.75;;;7.78;;
65691;SDS011;52411;52.716;6.696;2023-03-20T02:13:36;21.17;;;8.38;;
65691;SDS011;52411;52.716;6.696;2023-03-20T02:18:36;20.70;;;9.18;;
65691;SDS011;52411;52.716;6.696;2023-03-20T02:21:13;20.35;;;9.82;;
65691;SDS011;52411;52.716;6.696;2023-03-20T02:27:22;22.85;;;9.85;;
65691;SDS011;52411;52.716;6.696;2023-03-20T02:30:18;23.55;;;10.40;;
65691;SDS011;52411;52.716;6.696;2023-03-20T02:33:20;22.45;;;9.68;;
65691;SDS011;52411;52.716;6.696;2023-03-20T02:36:01;21.58;;;10.80;;
65691;SDS011;52411;52.716;6.696;2023-03-20T02:47:10;28.08;;;11.80;;
65691;SDS011;52411;52.716;6.696;2023-03-20T02:53:01;26.70;;;12.40;;
65691;SDS011;52411;52.716;6.696;2023-03-20T02:58:20;31.98;;;12.90;;
65691;SDS011;52411;52.716;6.696;2023-03-20T03:00:57;32.03;;;13.30;;
65691;SDS011;52411;52.716;6.696;2023-03-20T03:06:31;31.55;;;13.18;;
65691;SDS011;52411;52.716;6.696;2023-03-20T03:09:00;28.70;;;12.90;;
65691;SDS011;52411;52.716;6.696;2023-03-20T03:11:29;27.60;;;12.93;;
65691;SDS011;52411;52.716;6.696;2023-03-20T03:14:00;32.67;;;13.50;;
65691;SDS011;52411;52.716;6.696;2023-03-20T03:16:28;27.80;;;12.63;;
65691;SDS011;52411;52.716;6.696;2023-03-20T03:19:07;31.70;;;11.98;;
65691;SDS011;52411;52.716;6.696;2023-03-20T03:21:37;25.23;;;12.70;;
65691;SDS011;52411;52.716;6.696;2023-03-20T03:24:04;29.27;;;12.20;;
65691;SDS011;52411;52.716;6.696;2023-03-20T03:26:31;26.33;;;11.07;;
65691;SDS011;52411;52.716;6.696;2023-03-20T03:29:02;27.75;;;12.20;;
65691;SDS011;52411;52.716;6.696;2023-03-20T03:31:34;26.75;;;11.40;;
65691;SDS011;52411;52.716;6.696;2023-03-20T03:34:01;30.38;;;11.77;;
65691;SDS011;52411;52.716;6.696;2023-03-20T03:36:39;26.13;;;11.15;;
65691;SDS011;52411;52.716;6.696;2023-03-20T03:45:38;24.57;;;10.83;;
65691;SDS011;52411;52.716;6.696;2023-03-20T03:50:41;24.45;;;10.38;;
65691;SDS011;52411;52.716;6.696;2023-03-20T03:53:12;20.92;;;9.90;;
65691;SDS011;52411;52.716;6.696;2023-03-20T03:55:47;24.25;;;9.85;;
65691;SDS011;52411;52.716;6.696;2023-03-20T04:01:03;18.70;;;8.95;;
65691;SDS011;52411;52.716;6.696;2023-03-20T04:03:34;20.35;;;8.07;;
65691;SDS011;52411;52.716;6.696;2023-03-20T04:06:03;17.70;;;7.72;;
65691;SDS011;52411;52.716;6.696;2023-03-20T04:08:30;18.05;;;7.50;;
65691;SDS011;52411;52.716;6.696;2023-03-20T04:10:57;17.85;;;8.57;;
65691;SDS011;52411;52.716;6.696;2023-03-20T04:13:23;14.27;;;7.75;;
65691;SDS011;52411;52.716;6.696;2023-03-20T04:15:48;16.20;;;8.15;;
65691;SDS011;52411;52.716;6.696;2023-03-20T04:18:14;16.40;;;8.10;;
65691;SDS011;52411;52.716;6.696;2023-03-20T04:20:42;18.67;;;8.90;;
65691;SDS011;52411;52.716;6.696;2023-03-20T04:23:08;12.88;;;6.85;;
65691;SDS011;52411;52.716;6.696;2023-03-20T04:25:33;18.40;;;8.70;;
65691;SDS011;52411;52.716;6.696;2023-03-20T04:27:59;18.98;;;9.07;;
65691;SDS011;52411;52.716;6.696;2023-03-20T04:30:24;14.73;;;7.60;;
65691;SDS011;52411;52.716;6.696;2023-03-20T04:32:51;15.80;;;8.02;;
65691;SDS011;52411;52.716;6.696;2023-03-20T04:35:16;17.48;;;8.27;;
65691;SDS011;52411;52.716;6.696;2023-03-20T04:37:42;16.00;;;8.13;;
65691;SDS011;52411;52.716;6.696;2023-03-20T04:40:08;21.75;;;8.77;;
65691;SDS011;52411;52.716;6.696;2023-03-20T04:42:34;17.60;;;9.90;;
65691;SDS011;52411;52.716;6.696;2023-03-20T04:45:00;20.70;;;8.98;;
65691;SDS011;52411;52.716;6.696;2023-03-20T04:47:25;21.35;;;10.20;;
65691;SDS011;52411;52.716;6.696;2023-03-20T04:49:51;20.27;;;9.82;;
65691;SDS011;52411;52.716;6.696;2023-03-20T04:52:16;20.30;;;9.55;;
65691;SDS011;52411;52.716;6.696;2023-03-20T04:54:42;21.45;;;9.75;;
65691;SDS011;52411;52.716;6.696;2023-03-20T04:57:07;23.60;;;10.00;;
65691;SDS011;52411;52.716;6.696;2023-03-20T04:59:33;19.77;;;10.20;;
65691;SDS011;52411;52.716;6.696;2023-03-20T05:01:59;18.98;;;9.93;;
65691;SDS011;52411;52.716;6.696;2023-03-20T05:04:27;22.55;;;11.13;;
65691;SDS011;52411;52.716;6.696;2023-03-20T05:06:55;23.50;;;10.45;;
65691;SDS011;52411;52.716;6.696;2023-03-20T05:09:20;20.75;;;10.43;;
65691;SDS011;52411;52.716;6.696;2023-03-20T05:11:46;20.92;;;10.35;;
65691;SDS011;52411;52.716;6.696;2023-03-20T05:14:11;23.15;;;12.27;;
65691;SDS011;52411;52.716;6.696;2023-03-20T05:16:37;23.42;;;11.25;;
65691;SDS011;52411;52.716;6.696;2023-03-20T05:19:03;22.60;;;11.52;;
65691;SDS011;52411;52.716;6.696;2023-03-20T05:21:29;26.05;;;12.73;;
65691;SDS011;52411;52.716;6.696;2023-03-20T05:23:54;24.33;;;11.43;;
65691;SDS011;52411;52.716;6.696;2023-03-20T05:26:20;21.63;;;10.40;;
65691;SDS011;52411;52.716;6.696;2023-03-20T05:28:45;27.35;;;12.80;;
65691;SDS011;52411;52.716;6.696;2023-03-20T05:31:11;25.92;;;12.25;;
65691;SDS011;52411;52.716;6.696;2023-03-20T05:33:36;24.35;;;12.05;;
65691;SDS011;52411;52.716;6.696;2023-03-20T05:36:02;24.15;;;11.65;;
65691;SDS011;52411;52.716;6.696;2023-03-20T05:38:28;25.30;;;13.32;;
65691;SDS011;52411;52.716;6.696;2023-03-20T05:40:57;23.90;;;12.82;;
65691;SDS011;52411;52.716;6.696;2023-03-20T05:43:23;27.33;;;13.45;;
65691;SDS011;52411;52.716;6.696;2023-03-20T05:45:49;25.52;;;12.63;;
65691;SDS011;52411;52.716;6.696;2023-03-20T05:48:15;26.00;;;12.35;;
65691;SDS011;52411;52.716;6.696;2023-03-20T05:50:41;24.50;;;13.07;;
65691;SDS011;52411;52.716;6.696;2023-03-20T05:53:06;24.13;;;12.80;;
65691;SDS011;52411;52.716;6.696;2023-03-20T05:55:33;24.65;;;12.23;;
65691;SDS011;52411;52.716;6.696;2023-03-20T05:57:58;24.13;;;13.15;;
65691;SDS011;52411;52.716;6.696;2023-03-20T06:00:24;25.02;;;13.65;;
65691;SDS011;52411;52.716;6.696;2023-03-20T06:02:50;23.13;;;12.27;;
65691;SDS011;52411;52.716;6.696;2023-03-20T06:05:15;23.85;;;12.30;;
65691;SDS011;52411;52.716;6.696;2023-03-20T06:07:42;21.13;;;11.32;;
65691;SDS011;52411;52.716;6.696;2023-03-20T06:10:07;17.10;;;10.35;;
65691;SDS011;52411;52.716;6.696;2023-03-20T06:12:34;20.45;;;12.25;;
65691;SDS011;52411;52.716;6.696;2023-03-20T06:14:59;20.88;;;10.18;;
65691;SDS011;52411;52.716;6.696;2023-03-20T06:17:25;23.05;;;11.80;;
65691;SDS011;52411;52.716;6.696;2023-03-20T06:19:50;17.85;;;9.70;;
65691;SDS011;52411;52.716;6.696;2023-03-20T06:22:16;19.38;;;10.57;;
65691;SDS011;52411;52.716;6.696;2023-03-20T06:24:41;18.90;;;11.00;;
65691;SDS011;52411;52.716;6.696;2023-03-20T06:27:07;18.77;;;10.07;;
65691;SDS011;52411;52.716;6.696;2023-03-20T06:29:33;20.48;;;10.20;;
65691;SDS011;52411;52.716;6.696;2023-03-20T06:31:58;21.35;;;9.45;;
65691;SDS011;52411;52.716;6.696;2023-03-20T06:34:24;19.92;;;9.57;;
65691;SDS011;52411;52.716;6.696;2023-03-20T06:36:50;19.13;;;9.63;;
65691;SDS011;52411;52.716;6.696;2023-03-20T06:39:16;19.45;;;9.45;;
65691;SDS011;52411;52.716;6.696;2023-03-20T06:41:41;17.40;;;9.05;;
65691;SDS011;52411;52.716;6.696;2023-03-20T06:44:07;19.00;;;10.27;;
65691;SDS011;52411;52.716;6.696;2023-03-20T06:46:33;16.92;;;10.05;;
65691;SDS011;52411;52.716;6.696;2023-03-20T06:48:58;20.63;;;10.02;;
65691;SDS011;52411;52.716;6.696;2023-03-20T06:51:24;18.38;;;9.05;;
65691;SDS011;52411;52.716;6.696;2023-03-20T06:53:49;20.08;;;9.38;;
65691;SDS011;52411;52.716;6.696;2023-03-20T06:56:15;18.52;;;9.75;;
65691;SDS011;52411;52.716;6.696;2023-03-20T06:58:41;19.60;;;10.00;;
65691;SDS011;52411;52.716;6.696;2023-03-20T07:01:13;17.15;;;9.15;;
65691;SDS011;52411;52.716;6.696;2023-03-20T07:03:44;21.02;;;8.93;;
65691;SDS011;52411;52.716;6.696;2023-03-20T07:06:10;21.83;;;9.90;;
65691;SDS011;52411;52.716;6.696;2023-03-20T07:08:37;22.45;;;9.77;;
65691;SDS011;52411;52.716;6.696;2023-03-20T07:11:03;16.75;;;8.98;;
65691;SDS011;52411;52.716;6.696;2023-03-20T07:13:30;16.13;;;8.52;;
65691;SDS011;52411;52.716;6.696;2023-03-20T07:15:59;20.23;;;8.98;;
65691;SDS011;52411;52.716;6.696;2023-03-20T07:18:25;18.70;;;9.25;;
65691;SDS011;52411;52.716;6.696;2023-03-20T07:20:51;19.17;;;10.05;;
65691;SDS011;52411;52.716;6.696;2023-03-20T07:23:17;18.88;;;9.93;;
65691;SDS011;52411;52.716;6.696;2023-03-20T07:25:43;16.30;;;8.82;;
65691;SDS011;52411;52.716;6.696;2023-03-20T07:28:09;20.23;;;10.00;;
65691;SDS011;52411;52.716;6.696;2023-03-20T07:30:35;17.58;;;9.55;;
65691;SDS011;52411;52.716;6.696;2023-03-20T07:33:01;17.77;;;8.95;;
65691;SDS011;52411;52.716;6.696;2023-03-20T07:35:27;16.30;;;9.15;;
65691;SDS011;52411;52.716;6.696;2023-03-20T07:37:52;18.67;;;9.48;;
65691;SDS011;52411;52.716;6.696;2023-03-20T07:40:18;22.00;;;9.40;;
65691;SDS011;52411;52.716;6.696;2023-03-20T07:42:44;18.08;;;10.05;;
65691;SDS011;52411;52.716;6.696;2023-03-20T07:45:11;20.70;;;9.48;;
65691;SDS011;52411;52.716;6.696;2023-03-20T07:47:38;21.38;;;10.35;;
65691;SDS011;52411;52.716;6.696;2023-03-20T07:50:03;21.10;;;10.55;;
65691;SDS011;52411;52.716;6.696;2023-03-20T07:52:29;20.80;;;9.27;;
65691;SDS011;52411;52.716;6.696;2023-03-20T07:54:55;19.75;;;9.63;;
65691;SDS011;52411;52.716;6.696;2023-03-20T07:57:21;20.42;;;10.35;;
65691;SDS011;52411;52.716;6.696;2023-03-20T07:59:46;18.42;;;10.82;;
65691;SDS011;52411;52.716;6.696;2023-03-20T08:02:15;20.27;;;11.75;;
65691;SDS011;52411;52.716;6.696;2023-03-20T08:04:42;18.60;;;10.48;;
65691;SDS011;52411;52.716;6.696;2023-03-20T08:07:08;22.65;;;11.95;;
65691;SDS011;52411;52.716;6.696;2023-03-20T08:09:34;22.30;;;10.95;;
65691;SDS011;52411;52.716;6.696;2023-03-20T08:12:00;20.05;;;11.38;;
65691;SDS011;52411;52.716;6.696;2023-03-20T08:14:26;22.77;;;11.82;;
65691;SDS011;52411;52.716;6.696;2023-03-20T08:16:52;24.55;;;11.98;;
65691;SDS011;52411;52.716;6.696;2023-03-20T08:19:17;21.60;;;12.00;;
65691;SDS011;52411;52.716;6.696;2023-03-20T08:21:43;24.42;;;11.65;;
65691;SDS011;52411;52.716;6.696;2023-03-20T08:24:09;23.10;;;12.57;;
65691;SDS011;52411;52.716;6.696;2023-03-20T08:26:35;22.20;;;10.93;;
65691;SDS011;52411;52.716;6.696;2023-03-20T08:29:00;23.50;;;11.75;;
65691;SDS011;52411;52.716;6.696;2023-03-20T08:31:26;23.75;;;12.20;;
65691;SDS011;52411;52.716;6.696;2023-03-20T08:33:52;23.77;;;12.02;;
65691;SDS011;52411;52.716;6.696;2023-03-20T08:36:19;22.02;;;12.00;;
65691;SDS011;52411;52.716;6.696;2023-03-20T08:38:47;23.15;;;11.82;;
65691;SDS011;52411;52.716;6.696;2023-03-20T08:41:13;21.67;;;13.02;;
65691;SDS011;52411;52.716;6.696;2023-03-20T08:43:39;23.52;;;11.88;;
65691;SDS011;52411;52.716;6.696;2023-03-20T08:46:05;26.08;;;12.75;;
65691;SDS011;52411;52.716;6.696;2023-03-20T08:48:31;19.05;;;11.32;;
65691;SDS011;52411;52.716;6.696;2023-03-20T08:50:57;24.40;;;12.65;;
65691;SDS011;52411;52.716;6.696;2023-03-20T08:53:23;20.75;;;11.98;;
65691;SDS011;52411;52.716;6.696;2023-03-20T08:55:49;25.58;;;12.20;;
65691;SDS011;52411;52.716;6.696;2023-03-20T08:58:15;23.73;;;12.95;;
65691;SDS011;52411;52.716;6.696;2023-03-20T09:00:42;21.52;;;12.43;;
65691;SDS011;52411;52.716;6.696;2023-03-20T09:03:11;21.23;;;12.00;;
65691;SDS011;52411;52.716;6.696;2023-03-20T09:05:44;26.45;;;11.63;;
65691;SDS011;52411;52.716;6.696;2023-03-20T09:08:14;24.08;;;11.35;;
65691;SDS011;52411;52.716;6.696;2023-03-20T09:10:40;21.73;;;11.25;;
65691;SDS011;52411;52.716;6.696;2023-03-20T09:13:06;23.65;;;11.75;;
65691;SDS011;52411;52.716;6.696;2023-03-20T09:15:33;21.67;;;11.30;;
65691;SDS011;52411;52.716;6.696;2023-03-20T09:17:59;19.17;;;11.02;;
65691;SDS011;52411;52.716;6.696;2023-03-20T09:20:24;17.58;;;10.52;;
65691;SDS011;52411;52.716;6.696;2023-03-20T09:22:50;21.35;;;10.32;;
65691;SDS011;52411;52.716;6.696;2023-03-20T09:25:15;19.75;;;10.38;;
65691;SDS011;52411;52.716;6.696;2023-03-20T09:27:41;20.58;;;10.95;;
65691;SDS011;52411;52.716;6.696;2023-03-20T09:30:07;16.45;;;10.20;;
65691;SDS011;52411;52.716;6.696;2023-03-20T09:32:34;17.48;;;11.00;;
65691;SDS011;52411;52.716;6.696;2023-03-20T09:35:00;19.35;;;10.45;;
65691;SDS011;52411;52.716;6.696;2023-03-20T09:37:26;20.27;;;11.15;;
65691;SDS011;52411;52.716;6.696;2023-03-20T09:39:52;19.05;;;10.38;;
65691;SDS011;52411;52.716;6.696;2023-03-20T09:42:31;18.70;;;10.68;;
65691;SDS011;52411;52.716;6.696;2023-03-20T09:50:56;19.77;;;10.38;;
65691;SDS011;52411;52.716;6.696;2023-03-20T09:53:36;19.58;;;9.98;;
65691;SDS011;52411;52.716;6.696;2023-03-20T09:56:05;19.75;;;10.35;;
65691;SDS011;52411;52.716;6.696;2023-03-20T09:58:38;18.10;;;9.98;;
65691;SDS011;52411;52.716;6.696;2023-03-20T10:01:06;20.05;;;10.57;;
65691;SDS011;52411;52.716;6.696;2023-03-20T10:06:17;18.08;;;9.15;;
65691;SDS011;52411;52.716;6.696;2023-03-20T10:08:44;15.73;;;9.13;;
65691;SDS011;52411;52.716;6.696;2023-03-20T10:11:30;18.52;;;9.32;;
65691;SDS011;52411;52.716;6.696;2023-03-20T10:14:06;20.88;;;9.38;;
65691;SDS011;52411;52.716;6.696;2023-03-20T10:19:58;14.90;;;8.68;;
65691;SDS011;52411;52.716;6.696;2023-03-20T10:22:39;15.93;;;8.73;;
65691;SDS011;52411;52.716;6.696;2023-03-20T10:27:51;19.25;;;10.00;;
65691;SDS011;52411;52.716;6.696;2023-03-20T10:42:18;20.00;;;10.60;;
65691;SDS011;52411;52.716;6.696;2023-03-20T10:44:59;22.55;;;11.27;;
65691;SDS011;52411;52.716;6.696;2023-03-20T10:47:31;21.83;;;11.00;;
65691;SDS011;52411;52.716;6.696;2023-03-20T10:50:02;20.25;;;11.80;;
65691;SDS011;52411;52.716;6.696;2023-03-20T10:52:36;20.88;;;11.63;;
65691;SDS011;52411;52.716;6.696;2023-03-20T10:57:36;19.55;;;11.25;;
65691;SDS011;52411;52.716;6.696;2023-03-20T11:02:36;18.23;;;10.20;;
65691;SDS011;52411;52.716;6.696;2023-03-20T11:05:09;21.77;;;10.60;;
65691;SDS011;52411;52.716;6.696;2023-03-20T11:10:33;19.55;;;9.55;;
65691;SDS011;52411;52.716;6.696;2023-03-20T11:13:13;15.15;;;9.73;;
65691;SDS011;52411;52.716;6.696;2023-03-20T11:15:43;21.30;;;10.55;;
65691;SDS011;52411;52.716;6.696;2023-03-20T11:18:10;16.45;;;8.77;;
65691;SDS011;52411;52.716;6.696;2023-03-20T11:20:39;15.88;;;8.57;;
65691;SDS011;52411;52.716;6.696;2023-03-20T11:23:13;20.35;;;9.07;;
65691;SDS011;52411;52.716;6.696;2023-03-20T11:25:47;19.23;;;8.88;;
65691;SDS011;52411;52.716;6.696;2023-03-20T11:28:29;16.35;;;8.88;;
65691;SDS011;52411;52.716;6.696;2023-03-20T11:33:30;19.77;;;10.02;;
65691;SDS011;52411;52.716;6.696;2023-03-20T11:36:04;18.25;;;10.27;;
65691;SDS011;52411;52.716;6.696;2023-03-20T11:38:39;15.75;;;10.02;;
65691;SDS011;52411;52.716;6.696;2023-03-20T11:41:19;17.38;;;9.32;;
65691;SDS011;52411;52.716;6.696;2023-03-20T11:43:49;18.65;;;10.32;;
65691;SDS011;52411;52.716;6.696;2023-03-20T11:46:14;16.55;;;9.77;;
65691;SDS011;52411;52.716;6.696;2023-03-20T11:48:43;18.00;;;10.70;;
65691;SDS011;52411;52.716;6.696;2023-03-20T11:51:14;17.35;;;9.80;;
65691;SDS011;52411;52.716;6.696;2023-03-20T11:56:14;20.35;;;11.15;;
65691;SDS011;52411;52.716;6.696;2023-03-20T12:01:38;17.05;;;8.93;;
65691;SDS011;52411;52.716;6.696;2023-03-20T12:04:32;18.73;;;9.15;;
65691;SDS011;52411;52.716;6.696;2023-03-20T12:09:57;15.52;;;9.32;;
65691;SDS011;52411;52.716;6.696;2023-03-20T12:12:33;17.52;;;9.57;;
65691;SDS011;52411;52.716;6.696;2023-03-20T12:15:07;15.63;;;8.05;;
65691;SDS011;52411;52.716;6.696;2023-03-20T12:26:13;12.50;;;6.68;;
65691;SDS011;52411;52.716;6.696;2023-03-20T12:31:19;12.15;;;6.10;;
65691;SDS011;52411;52.716;6.696;2023-03-20T12:33:54;9.90;;;6.20;;
65691;SDS011;52411;52.716;6.696;2023-03-20T12:36:33;13.05;;;6.72;;
65691;SDS011;52411;52.716;6.696;2023-03-20T12:39:03;10.60;;;6.15;;
65691;SDS011;52411;52.716;6.696;2023-03-20T12:50:03;14.88;;;6.93;;
65691;SDS011;52411;52.716;6.696;2023-03-20T12:53:00;10.75;;;5.75;;
65691;SDS011;52411;52.716;6.696;2023-03-20T12:56:01;10.68;;;5.78;;
65691;SDS011;52411;52.716;6.696;2023-03-20T12:59:10;9.95;;;6.30;;
65691;SDS011;52411;52.716;6.696;2023-03-20T13:01:52;12.05;;;6.40;;
65691;SDS011;52411;52.716;6.696;2023-03-20T13:07:18;9.75;;;6.10;;
65691;SDS011;52411;52.716;6.696;2023-03-20T13:09:54;13.52;;;6.63;;
65691;SDS011;52411;52.716;6.696;2023-03-20T13:12:38;9.45;;;6.22;;
65691;SDS011;52411;52.716;6.696;2023-03-20T13:18:54;10.30;;;6.25;;
65691;SDS011;52411;52.716;6.696;2023-03-20T13:21:08;10.20;;;5.47;;
65691;SDS011;52411;52.716;6.696;2023-03-20T13:23:43;13.02;;;5.85;;
65691;SDS011;52411;52.716;6.696;2023-03-20T13:31:56;14.23;;;5.50;;
65691;SDS011;52411;52.716;6.696;2023-03-20T13:37:12;13.20;;;5.18;;
65691;SDS011;52411;52.716;6.696;2023-03-20T13:39:47;9.07;;;4.90;;
65691;SDS011;52411;52.716;6.696;2023-03-20T13:42:35;10.85;;;4.85;;
65691;SDS011;52411;52.716;6.696;2023-03-20T13:45:11;7.75;;;5.15;;
65691;SDS011;52411;52.716;6.696;2023-03-20T13:47:52;9.65;;;5.57;;
65691;SDS011;52411;52.716;6.696;2023-03-20T13:53:22;10.80;;;5.43;;
65691;SDS011;52411;52.716;6.696;2023-03-20T13:56:27;9.38;;;5.22;;
65691;SDS011;52411;52.716;6.696;2023-03-20T14:01:43;10.60;;;6.03;;
65691;SDS011;52411;52.716;6.696;2023-03-20T14:04:36;12.80;;;7.38;;
65691;SDS011;52411;52.716;6.696;2023-03-20T14:07:23;10.25;;;5.35;;
65691;SDS011;52411;52.716;6.696;2023-03-20T14:09:52;10.60;;;6.80;;
65691;SDS011;52411;52.716;6.696;2023-03-20T14:12:18;11.75;;;6.80;;
65691;SDS011;52411;52.716;6.696;2023-03-20T14:14:56;12.55;;;6.28;;
65691;SDS011;52411;52.716;6.696;2023-03-20T14:17:25;14.68;;;7.57;;
65691;SDS011;52411;52.716;6.696;2023-03-20T14:19:53;16.27;;;6.80;;
65691;SDS011;52411;52.716;6.696;2023-03-20T14:22:27;14.95;;;8.13;;
65691;SDS011;52411;52.716;6.696;2023-03-20T14:24:58;13.02;;;6.90;;
65691;SDS011;52411;52.716;6.696;2023-03-20T14:27:34;12.48;;;6.85;;
65691;SDS011;52411;52.716;6.696;2023-03-20T14:33:00;13.77;;;6.53;;
65691;SDS011;52411;52.716;6.696;2023-03-20T14:35:35;13.23;;;6.13;;
65691;SDS011;52411;52.716;6.696;2023-03-20T14:40:48;18.15;;;6.47;;
65691;SDS011;52411;52.716;6.696;2023-03-20T14:48:58;12.57;;;7.00;;
65691;SDS011;52411;52.716;6.696;2023-03-20T14:51:45;14.68;;;7.90;;
65691;SDS011;52411;52.716;6.696;2023-03-20T14:59:12;23.98;;;8.63;;
65691;SDS011;52411;52.716;6.696;2023-03-20T15:06:48;16.85;;;8.70;;
65691;SDS011;52411;52.716;6.696;2023-03-20T15:09:20;16.58;;;8.48;;
65691;SDS011;52411;52.716;6.696;2023-03-20T15:11:48;15.27;;;8.80;;
65691;SDS011;52411;52.716;6.696;2023-03-20T15:14:24;15.73;;;9.20;;
65691;SDS011;52411;52.716;6.696;2023-03-20T15:16:56;16.33;;;9.40;;
65691;SDS011;52411;52.716;6.696;2023-03-20T15:19:23;19.60;;;10.37;;
65691;SDS011;52411;52.716;6.696;2023-03-20T15:21:48;20.38;;;10.40;;
65691;SDS011;52411;52.716;6.696;2023-03-20T15:24:21;17.67;;;9.85;;
65691;SDS011;52411;52.716;6.696;2023-03-20T15:26:56;21.55;;;10.77;;
65691;SDS011;52411;52.716;6.696;2023-03-20T15:29:24;20.15;;;9.85;;
65691;SDS011;52411;52.716;6.696;2023-03-20T15:31:51;18.00;;;10.05;;
65691;SDS011;52411;52.716;6.696;2023-03-20T15:34:21;24.38;;;11.98;;
65691;SDS011;52411;52.716;6.696;2023-03-20T15:36:50;18.70;;;11.10;;
65691;SDS011;52411;52.716;6.696;2023-03-20T15:39:18;24.70;;;12.15;;
65691;SDS011;52411;52.716;6.696;2023-03-20T15:42:02;23.88;;;11.25;;
65691;SDS011;52411;52.716;6.696;2023-03-20T15:44:35;18.30;;;11.45;;
65691;SDS011;52411;52.716;6.696;2023-03-20T15:49:58;23.17;;;11.60;;
65691;SDS011;52411;52.716;6.696;2023-03-20T15:52:30;21.15;;;12.50;;
65691;SDS011;52411;52.716;6.696;2023-03-20T15:55:15;27.13;;;12.95;;
65691;SDS011;52411;52.716;6.696;2023-03-20T15:57:43;22.25;;;12.52;;
65691;SDS011;52411;52.716;6.696;2023-03-20T16:00:32;23.52;;;12.93;;
65691;SDS011;52411;52.716;6.696;2023-03-20T16:02:59;25.13;;;13.32;;
65691;SDS011;52411;52.716;6.696;2023-03-20T16:05:28;25.88;;;13.20;;
65691;SDS011;52411;52.716;6.696;2023-03-20T16:07:54;23.25;;;12.63;;
65691;SDS011;52411;52.716;6.696;2023-03-20T16:12:54;28.77;;;14.57;;
65691;SDS011;52411;52.716;6.696;2023-03-20T16:15:22;26.80;;;15.00;;
65691;SDS011;52411;52.716;6.696;2023-03-20T16:17:52;27.83;;;14.43;;
65691;SDS011;52411;52.716;6.696;2023-03-20T16:20:21;27.83;;;15.68;;
65691;SDS011;52411;52.716;6.696;2023-03-20T16:22:51;30.83;;;16.75;;
65691;SDS011;52411;52.716;6.696;2023-03-20T16:25:23;27.92;;;14.68;;
65691;SDS011;52411;52.716;6.696;2023-03-20T16:27:49;28.98;;;14.25;;
65691;SDS011;52411;52.716;6.696;2023-03-20T16:30:17;30.60;;;17.17;;
65691;SDS011;52411;52.716;6.696;2023-03-20T16:32:46;28.00;;;15.95;;
65691;SDS011;52411;52.716;6.696;2023-03-20T16:35:19;35.15;;;16.17;;
65691;SDS011;52411;52.716;6.696;2023-03-20T16:38:01;29.30;;;15.13;;
65691;SDS011;52411;52.716;6.696;2023-03-20T16:40:37;32.58;;;17.45;;
65691;SDS011;52411;52.716;6.696;2023-03-20T16:43:13;31.17;;;16.40;;
65691;SDS011;52411;52.716;6.696;2023-03-20T16:45:45;26.30;;;13.82;;
65691;SDS011;52411;52.716;6.696;2023-03-20T16:48:19;30.77;;;16.70;;
65691;SDS011;52411;52.716;6.696;2023-03-20T16:50:54;35.95;;;17.10;;
65691;SDS011;52411;52.716;6.696;2023-03-20T16:53:26;27.70;;;15.50;;
65691;SDS011;52411;52.716;6.696;2023-03-20T16:55:54;36.20;;;17.33;;
65691;SDS011;52411;52.716;6.696;2023-03-20T16:58:23;36.78;;;17.77;;
65691;SDS011;52411;52.716;6.696;2023-03-20T17:00:57;34.75;;;19.55;;
65691;SDS011;52411;52.716;6.696;2023-03-20T17:03:26;36.58;;;18.85;;
65691;SDS011;52411;52.716;6.696;2023-03-20T17:05:58;40.67;;;21.30;;
65691;SDS011;52411;52.716;6.696;2023-03-20T17:08:37;38.10;;;18.08;;
65691;SDS011;52411;52.716;6.696;2023-03-20T17:11:10;39.65;;;18.98;;
65691;SDS011;52411;52.716;6.696;2023-03-20T17:13:39;38.15;;;17.45;;
65691;SDS011;52411;52.716;6.696;2023-03-20T17:16:05;41.30;;;19.90;;
65691;SDS011;52411;52.716;6.696;2023-03-20T17:18:34;44.92;;;20.25;;
65691;SDS011;52411;52.716;6.696;2023-03-20T17:21:01;40.22;;;19.77;;
65691;SDS011;52411;52.716;6.696;2023-03-20T17:23:27;41.63;;;20.75;;